createdAt,value
2022-11-06T00:00:36.370Z,22.73
2022-11-06T00:02:38.994Z,25.15
2022-11-06T00:04:41.666Z,25.15
2022-11-06T00:06:49.413Z,25.58
2022-11-06T00:08:52.070Z,23.63
2022-11-06T00:10:54.842Z,30.10
2022-11-06T00:12:57.424Z,28.92
2022-11-06T00:15:01.384Z,23.52
2022-11-06T00:17:04.030Z,24.00
2022-11-06T00:19:07.003Z,23.98
2022-11-06T00:21:10.800Z,26.73
2022-11-06T00:23:13.385Z,24.40
2022-11-06T00:25:16.109Z,29.33
2022-11-06T00:27:18.709Z,26.42
2022-11-06T00:29:21.292Z,27.17
2022-11-06T00:31:28.270Z,26.60
2022-11-06T00:33:30.874Z,24.95
2022-11-06T00:35:33.480Z,26.15
2022-11-06T00:37:36.180Z,22.38
2022-11-06T00:39:38.775Z,26.27
2022-11-06T00:41:41.436Z,25.48
2022-11-06T00:43:48.692Z,21.90
2022-11-06T00:45:51.276Z,23.48
2022-11-06T00:47:55.232Z,22.92
2022-11-06T00:49:57.793Z,22.23
2022-11-06T00:52:01.122Z,24.17
2022-11-06T00:54:06.176Z,21.80
2022-11-06T00:56:10.853Z,26.35
2022-11-06T00:58:13.692Z,25.40
2022-11-06T01:00:20.379Z,28.08
2022-11-06T01:02:23.060Z,23.25
2022-11-06T01:04:27.160Z,28.80
2022-11-06T01:06:31.940Z,23.70
2022-11-06T01:08:34.870Z,21.30
2022-11-06T01:10:38.173Z,20.10
2022-11-06T01:12:40.770Z,23.92
2022-11-06T01:14:44.141Z,26.33
2022-11-06T01:16:47.084Z,19.88
2022-11-06T01:18:50.395Z,21.52
2022-11-06T01:20:54.327Z,20.88
2022-11-06T01:22:56.926Z,23.20
2022-11-06T01:24:59.653Z,21.17
2022-11-06T01:27:25.444Z,21.58
2022-11-06T01:29:24.931Z,19.30
2022-11-06T01:31:30.776Z,19.13
2022-11-06T01:33:33.759Z,20.85
2022-11-06T01:35:36.387Z,19.77
2022-11-06T01:37:40.327Z,21.27
2022-11-06T01:39:43.175Z,19.88
2022-11-06T01:41:47.696Z,24.10
2022-11-06T01:43:52.407Z,19.85
2022-11-06T01:45:56.319Z,17.48
2022-11-06T01:47:58.935Z,21.95
2022-11-06T01:50:05.368Z,22.70
2022-11-06T01:52:12.294Z,20.02
2022-11-06T01:56:21.254Z,19.88
2022-11-06T01:58:27.708Z,21.40
2022-11-06T02:00:31.125Z,23.67
2022-11-06T02:02:34.188Z,20.75
2022-11-06T02:04:39.583Z,22.80
2022-11-06T02:06:42.164Z,20.75
2022-11-06T02:08:44.890Z,22.15
2022-11-06T02:10:49.296Z,22.35
2022-11-06T02:12:59.513Z,23.17
2022-11-06T02:15:07.324Z,23.90
2022-11-06T02:17:16.624Z,28.27
2022-11-06T02:19:41.143Z,25.85
2022-11-06T02:22:10.366Z,24.15
2022-11-06T02:24:29.004Z,22.33
2022-11-06T02:26:53.272Z,23.63
2022-11-06T02:29:02.168Z,26.48
2022-11-06T02:31:11.264Z,21.30
2022-11-06T02:33:17.820Z,22.90
2022-11-06T02:35:24.624Z,23.77
2022-11-06T02:37:30.879Z,24.85
2022-11-06T02:39:37.506Z,25.35
2022-11-06T02:41:43.572Z,24.20
2022-11-06T02:43:55.568Z,26.08
2022-11-06T02:46:03.281Z,26.90
2022-11-06T02:48:09.074Z,24.70
2022-11-06T02:50:15.260Z,24.80
2022-11-06T02:52:22.460Z,29.20
2022-11-06T02:54:27.473Z,28.55
2022-11-06T02:56:36.759Z,33.53
2022-11-06T02:58:47.906Z,28.05
2022-11-06T03:01:00.638Z,30.35
2022-11-06T03:03:07.737Z,34.00
2022-11-06T03:05:15.046Z,30.20
2022-11-06T03:07:23.833Z,27.30
2022-11-06T03:09:30.146Z,27.75
2022-11-06T03:11:35.778Z,28.63
2022-11-06T03:13:50.295Z,29.52
2022-11-06T03:16:05.176Z,25.02
2022-11-06T03:18:14.531Z,24.63
2022-11-06T03:20:23.485Z,27.00
2022-11-06T03:22:29.221Z,23.08
2022-11-06T03:24:37.774Z,24.92
2022-11-06T03:26:45.414Z,24.13
2022-11-06T03:28:52.593Z,25.70
2022-11-06T03:31:00.938Z,22.63
2022-11-06T03:33:10.436Z,26.80
2022-11-06T03:35:19.534Z,31.63
2022-11-06T03:37:25.803Z,54.58
2022-11-06T03:39:33.104Z,54.25
2022-11-06T03:41:41.252Z,68.55
2022-11-06T03:43:46.472Z,49.25
2022-11-06T03:45:53.424Z,55.70
2022-11-06T03:50:08.507Z,33.17
2022-11-06T03:52:16.527Z,29.90
2022-11-06T03:54:23.040Z,24.75
2022-11-06T03:56:30.758Z,21.30
2022-11-06T03:58:38.746Z,49.40
2022-11-06T04:00:43.940Z,49.33
2022-11-06T04:02:51.827Z,26.55
2022-11-06T04:04:59.798Z,47.83
2022-11-06T04:07:06.864Z,72.35
2022-11-06T04:09:30.899Z,42.28
2022-11-06T04:11:53.587Z,55.67
2022-11-06T04:14:01.970Z,58.13
2022-11-06T04:16:05.152Z,49.80
2022-11-06T04:18:13.373Z,67.00
2022-11-06T04:20:35.460Z,40.70
2022-11-06T04:22:46.711Z,48.92
2022-11-06T04:25:18.789Z,52.72
2022-11-06T04:27:34.337Z,57.85
2022-11-06T04:29:48.308Z,35.58
2022-11-06T04:32:03.982Z,35.50
2022-11-06T04:34:14.395Z,41.60
2022-11-06T04:36:26.798Z,31.02
2022-11-06T04:38:39.609Z,46.58
2022-11-06T04:40:53.516Z,30.55
2022-11-06T04:43:00.082Z,30.40
2022-11-06T04:45:06.071Z,31.50
2022-11-06T04:47:13.481Z,27.08
2022-11-06T04:49:17.372Z,19.80
2022-11-06T04:51:27.237Z,17.20
2022-11-06T04:53:31.795Z,17.60
2022-11-06T04:55:46.269Z,16.25
2022-11-06T04:57:48.922Z,15.55
2022-11-06T04:59:51.614Z,15.10
2022-11-06T05:01:54.520Z,13.25
2022-11-06T05:03:57.357Z,14.57
2022-11-06T05:06:00.139Z,13.63
2022-11-06T05:08:04.223Z,15.70
2022-11-06T05:10:07.624Z,13.55
2022-11-06T05:12:10.404Z,13.05
2022-11-06T05:14:13.026Z,11.13
2022-11-06T05:16:15.595Z,10.82
2022-11-06T05:18:18.153Z,15.20
2022-11-06T05:20:20.726Z,13.80
2022-11-06T05:22:40.834Z,13.02
2022-11-06T05:24:44.758Z,10.73
2022-11-06T05:26:47.476Z,12.07
2022-11-06T05:28:50.310Z,13.75
2022-11-06T05:30:53.048Z,17.10
2022-11-06T05:32:55.729Z,13.57
2022-11-06T05:34:58.352Z,16.52
2022-11-06T05:37:00.941Z,13.10
2022-11-06T05:39:03.605Z,14.95
2022-11-06T05:41:07.744Z,14.60
2022-11-06T05:43:10.428Z,14.85
2022-11-06T05:45:13.356Z,17.55
2022-11-06T05:47:16.005Z,14.85
2022-11-06T05:49:19.037Z,15.27
2022-11-06T05:51:21.755Z,15.18
2022-11-06T05:53:24.382Z,15.02
2022-11-06T05:55:26.954Z,19.42
2022-11-06T05:57:30.900Z,17.13
2022-11-06T05:59:33.908Z,15.90
2022-11-06T06:01:36.625Z,16.85
2022-11-06T06:03:39.339Z,16.35
2022-11-06T06:05:41.957Z,16.73
2022-11-06T06:07:44.629Z,16.90
2022-11-06T06:09:47.362Z,16.98
2022-11-06T06:11:51.859Z,15.77
2022-11-06T06:13:55.948Z,14.40
2022-11-06T06:16:02.267Z,16.15
2022-11-06T06:18:05.175Z,16.63
2022-11-06T06:20:09.477Z,18.42
2022-11-06T06:22:12.094Z,18.33
2022-11-06T06:24:14.752Z,19.13
2022-11-06T06:26:17.378Z,18.17
2022-11-06T06:28:20.024Z,18.33
2022-11-06T06:30:24.938Z,15.63
2022-11-06T06:32:27.648Z,17.55
2022-11-06T06:34:30.272Z,17.42
2022-11-06T06:36:32.867Z,18.60
2022-11-06T06:38:35.504Z,15.15
2022-11-06T06:40:38.074Z,16.65
2022-11-06T06:42:40.676Z,16.23
2022-11-06T06:44:43.317Z,17.90
2022-11-06T06:46:47.247Z,20.15
2022-11-06T06:48:49.842Z,16.05
2022-11-06T06:50:52.554Z,18.63
2022-11-06T06:52:58.737Z,18.63
2022-11-06T06:55:01.384Z,16.67
2022-11-06T06:57:04.436Z,16.58
2022-11-06T06:59:07.450Z,20.40
2022-11-06T07:01:11.117Z,17.00
2022-11-06T07:03:15.220Z,15.10
2022-11-06T07:05:18.021Z,16.77
2022-11-06T07:07:20.613Z,16.55
2022-11-06T07:09:23.823Z,17.70
2022-11-06T07:11:26.432Z,14.73
2022-11-06T07:13:35.500Z,15.23
2022-11-06T07:15:38.647Z,16.60
2022-11-06T07:17:41.271Z,13.88
2022-11-06T07:19:45.322Z,11.07
2022-11-06T07:21:47.951Z,13.55
2022-11-06T07:23:50.629Z,13.27
2022-11-06T07:25:54.032Z,10.73
2022-11-06T07:28:01.622Z,20.63
2022-11-06T07:30:05.947Z,18.10
2022-11-06T07:32:09.543Z,44.53
2022-11-06T07:34:12.389Z,29.92
2022-11-06T07:36:16.383Z,52.08
2022-11-06T07:38:19.118Z,53.25
2022-11-06T07:40:21.891Z,64.90
2022-11-06T07:42:24.522Z,97.88
2022-11-06T07:44:27.120Z,131.10
2022-11-06T07:46:29.780Z,76.05
2022-11-06T07:48:33.155Z,182.88
2022-11-06T07:50:35.779Z,137.88
2022-11-06T07:52:39.793Z,121.97
2022-11-06T07:54:42.414Z,88.80
2022-11-06T07:56:45.043Z,127.05
2022-11-06T07:58:47.658Z,161.48
2022-11-06T08:00:51.090Z,74.13
2022-11-06T08:02:54.066Z,182.05
2022-11-06T08:04:56.851Z,30.20
2022-11-06T08:06:59.517Z,151.75
2022-11-06T08:09:06.320Z,138.77
2022-11-06T08:11:11.151Z,62.83
2022-11-06T08:13:15.472Z,125.28
2022-11-06T08:15:18.145Z,126.78
2022-11-06T08:17:20.790Z,69.13
2022-11-06T08:19:23.463Z,67.38
2022-11-06T08:21:26.161Z,65.93
2022-11-06T08:23:28.836Z,85.32
2022-11-06T08:25:34.649Z,72.32
2022-11-06T08:27:37.792Z,82.32
2022-11-06T08:29:41.777Z,115.15
2022-11-06T08:31:44.566Z,65.18
2022-11-06T08:33:47.168Z,58.78
2022-11-06T08:35:49.913Z,64.90
2022-11-06T08:37:52.516Z,93.65
2022-11-06T08:39:55.091Z,50.22
2022-11-06T08:41:59.101Z,36.13
2022-11-06T08:44:01.733Z,63.75
2022-11-06T08:46:04.820Z,53.35
2022-11-06T08:48:09.183Z,74.90
2022-11-06T08:50:11.826Z,27.40
2022-11-06T08:52:14.474Z,29.23
2022-11-06T08:54:17.276Z,20.33
2022-11-06T08:56:19.898Z,11.40
2022-11-06T08:58:23.924Z,11.38
2022-11-06T09:00:26.793Z,9.70
2022-11-06T09:02:29.536Z,15.63
2022-11-06T09:04:35.136Z,10.77
2022-11-06T09:06:41.392Z,10.93
2022-11-06T09:08:44.025Z,9.15
2022-11-06T09:10:46.876Z,9.20
2022-11-06T09:12:49.601Z,8.40
2022-11-06T09:14:55.173Z,9.80
2022-11-06T09:16:57.832Z,9.10
2022-11-06T09:19:00.496Z,10.05
2022-11-06T09:21:03.182Z,9.13
2022-11-06T09:23:07.592Z,8.38
2022-11-06T09:25:10.749Z,9.30
2022-11-06T09:27:13.494Z,8.80
2022-11-06T09:29:16.213Z,10.70
2022-11-06T09:31:21.360Z,14.02
2022-11-06T09:33:24.071Z,10.85
2022-11-06T09:35:28.189Z,10.25
2022-11-06T09:37:30.814Z,12.48
2022-11-06T09:39:33.445Z,10.65
2022-11-06T09:41:44.432Z,11.27
2022-11-06T09:44:06.174Z,8.98
2022-11-06T09:46:20.299Z,8.73
2022-11-06T09:48:31.634Z,10.30
2022-11-06T09:50:38.882Z,8.98
2022-11-06T09:52:46.432Z,9.10
2022-11-06T09:54:56.250Z,11.07
2022-11-06T09:57:06.726Z,10.48
2022-11-06T09:59:15.708Z,10.18
2022-11-06T10:01:27.134Z,10.60
2022-11-06T10:03:41.395Z,11.15
2022-11-06T10:05:45.856Z,9.27
2022-11-06T10:07:51.769Z,9.75
2022-11-06T10:09:54.758Z,8.60
2022-11-06T10:12:08.987Z,7.13
2022-11-06T10:14:25.061Z,8.40
2022-11-06T10:16:35.829Z,8.70
2022-11-06T10:18:49.485Z,10.88
2022-11-06T10:20:54.368Z,9.57
2022-11-06T10:23:05.555Z,9.10
2022-11-06T10:25:20.615Z,8.30
2022-11-06T10:27:28.725Z,7.88
2022-11-06T10:29:45.478Z,7.90
2022-11-06T10:31:59.893Z,7.95
2022-11-06T10:34:07.872Z,8.32
2022-11-06T10:36:15.249Z,9.68
2022-11-06T10:38:22.452Z,7.70
2022-11-06T10:40:27.682Z,7.75
2022-11-06T10:42:37.850Z,10.15
2022-11-06T10:44:46.997Z,8.45
2022-11-06T10:46:54.821Z,8.55
2022-11-06T10:49:00.459Z,7.47
2022-11-06T10:51:17.300Z,7.25
2022-11-06T10:53:30.951Z,8.18
2022-11-06T10:56:09.700Z,9.05
2022-11-06T10:58:16.793Z,9.20
2022-11-06T11:00:19.875Z,9.52
2022-11-06T11:02:29.162Z,8.23
2022-11-06T11:04:32.927Z,8.68
2022-11-06T11:06:39.984Z,10.10
2022-11-06T11:08:44.732Z,7.68
2022-11-06T11:11:03.961Z,8.82
2022-11-06T11:13:08.911Z,9.88
2022-11-06T11:15:15.181Z,10.20
2022-11-06T11:17:21.375Z,9.70
2022-11-06T11:19:27.915Z,11.05
2022-11-06T11:21:30.615Z,9.30
2022-11-06T11:23:34.655Z,8.70
2022-11-06T11:25:37.521Z,8.23
2022-11-06T11:27:45.930Z,7.93
2022-11-06T11:29:50.553Z,10.48
2022-11-06T11:31:56.668Z,10.13
2022-11-06T11:34:02.206Z,10.52
2022-11-06T11:36:07.337Z,10.77
2022-11-06T11:38:14.827Z,8.77
2022-11-06T11:40:36.033Z,8.13
2022-11-06T11:42:38.868Z,9.10
2022-11-06T11:44:41.478Z,8.30
2022-11-06T11:46:48.845Z,7.88
2022-11-06T11:48:53.131Z,8.93
2022-11-06T11:50:55.826Z,8.85
2022-11-06T11:53:08.671Z,9.45
2022-11-06T11:55:16.801Z,7.95
2022-11-06T11:59:28.321Z,7.10
2022-11-06T12:01:39.257Z,7.72
2022-11-06T12:03:46.343Z,7.80
2022-11-06T12:05:49.153Z,8.45
2022-11-06T12:07:56.852Z,7.65
2022-11-06T12:10:00.855Z,9.85
2022-11-06T12:12:03.614Z,7.80
2022-11-06T12:14:27.522Z,8.77
2022-11-06T12:16:30.632Z,8.20
2022-11-06T12:18:36.536Z,9.63
2022-11-06T12:20:43.782Z,7.65
2022-11-06T12:22:48.716Z,8.38
2022-11-06T12:24:55.783Z,8.32
2022-11-06T12:27:01.803Z,7.13
2022-11-06T12:29:09.662Z,7.07
2022-11-06T12:31:19.993Z,7.97
2022-11-06T12:33:52.041Z,7.28
2022-11-06T12:35:51.755Z,7.97
2022-11-06T12:38:04.149Z,6.90
2022-11-06T12:40:25.434Z,6.47
2022-11-06T12:42:33.180Z,6.78
2022-11-06T12:44:35.866Z,7.18
2022-11-06T12:46:49.256Z,6.18
2022-11-06T12:49:12.853Z,7.22
2022-11-06T12:51:22.856Z,7.00
2022-11-06T12:53:35.776Z,6.88
2022-11-06T12:55:43.676Z,6.45
2022-11-06T12:58:04.855Z,5.35
2022-11-06T13:00:12.520Z,5.18
2022-11-06T13:02:31.368Z,6.80
2022-11-06T13:04:42.653Z,6.53
2022-11-06T13:07:07.079Z,6.30
2022-11-06T13:11:26.153Z,7.45
2022-11-06T13:13:37.572Z,7.05
2022-11-06T13:15:47.786Z,6.20
2022-11-06T13:17:58.717Z,6.70
2022-11-06T13:20:06.998Z,6.53
2022-11-06T13:22:20.117Z,8.60
2022-11-06T13:24:29.548Z,8.48
2022-11-06T13:26:38.653Z,6.90
2022-11-06T13:28:45.900Z,6.70
2022-11-06T13:30:49.153Z,6.93
2022-11-06T13:33:01.104Z,7.38
2022-11-06T13:35:05.031Z,7.47
2022-11-06T13:37:14.916Z,7.00
2022-11-06T13:39:23.293Z,7.60
2022-11-06T13:41:29.306Z,5.85
2022-11-06T13:43:36.371Z,7.05
2022-11-06T13:45:47.699Z,7.28
2022-11-06T13:48:01.839Z,11.00
2022-11-06T13:50:12.245Z,6.82
2022-11-06T13:52:22.658Z,7.40
2022-11-06T13:54:40.820Z,6.63
2022-11-06T13:57:12.837Z,8.57
2022-11-06T13:59:37.736Z,6.32
2022-11-06T14:01:55.230Z,6.85
2022-11-06T14:04:53.380Z,7.35
2022-11-06T14:06:58.904Z,7.18
2022-11-06T14:09:06.197Z,6.63
2022-11-06T14:11:13.814Z,7.50
2022-11-06T14:13:17.516Z,7.00
2022-11-06T14:15:29.292Z,7.10
2022-11-06T14:17:32.135Z,6.05
2022-11-06T14:19:36.820Z,6.68
2022-11-06T14:21:49.476Z,7.63
2022-11-06T14:23:54.808Z,5.78
2022-11-06T14:26:01.021Z,5.97
2022-11-06T14:28:06.877Z,6.47
2022-11-06T14:31:10.438Z,7.40
2022-11-06T14:33:01.676Z,6.90
2022-11-06T14:35:49.200Z,6.75
2022-11-06T14:37:53.198Z,6.72
2022-11-06T14:40:06.641Z,5.85
2022-11-06T14:42:09.360Z,5.43
2022-11-06T14:44:21.967Z,7.65
2022-11-06T14:48:30.319Z,6.90
2022-11-06T14:50:39.717Z,6.32
2022-11-06T14:52:46.318Z,7.05
2022-11-06T14:55:03.377Z,6.55
2022-11-06T14:57:09.495Z,6.65
2022-11-06T14:59:21.387Z,5.75
2022-11-06T15:01:28.416Z,8.45
2022-11-06T15:03:39.404Z,6.00
2022-11-06T15:05:42.904Z,6.15
2022-11-06T15:08:04.872Z,8.30
2022-11-06T15:10:48.441Z,6.63
2022-11-06T15:13:12.233Z,6.95
2022-11-06T15:15:19.517Z,7.65
2022-11-06T15:17:24.906Z,7.03
2022-11-06T15:19:30.505Z,8.10
2022-11-06T15:21:41.875Z,7.55
2022-11-06T15:23:54.255Z,8.07
2022-11-06T15:26:03.674Z,6.22
2022-11-06T15:28:14.041Z,6.38
2022-11-06T15:30:18.878Z,8.23
2022-11-06T15:32:24.698Z,6.10
2022-11-06T15:34:30.702Z,6.85
2022-11-06T15:36:39.678Z,5.78
2022-11-06T15:38:45.225Z,8.43
2022-11-06T15:40:49.881Z,7.10
2022-11-06T15:42:52.800Z,6.50
2022-11-06T15:45:08.976Z,6.82
2022-11-06T15:47:22.158Z,9.50
2022-11-06T15:49:25.962Z,9.05
2022-11-06T15:51:30.141Z,7.07
2022-11-06T15:53:39.757Z,7.55
2022-11-06T15:55:48.826Z,8.98
2022-11-06T15:57:51.910Z,9.25
2022-11-06T16:00:10.264Z,7.75
2022-11-06T16:02:17.662Z,9.15
2022-11-06T16:04:22.798Z,9.15
2022-11-06T16:06:25.513Z,7.80
2022-11-06T16:08:31.262Z,7.85
2022-11-06T16:10:36.968Z,9.35
2022-11-06T16:12:39.641Z,9.63
2022-11-06T16:14:44.170Z,9.30
2022-11-06T16:16:50.460Z,9.68
2022-11-06T16:18:54.057Z,9.80
2022-11-06T16:21:01.203Z,9.70
2022-11-06T16:23:04.915Z,10.27
2022-11-06T16:25:08.687Z,10.02
2022-11-06T16:27:12.150Z,10.25
2022-11-06T16:29:21.099Z,9.73
2022-11-06T16:31:25.672Z,11.07
2022-11-06T16:33:30.209Z,9.10
2022-11-06T16:35:34.538Z,9.38
2022-11-06T16:37:39.903Z,10.55
2022-11-06T16:39:49.381Z,10.90
2022-11-06T16:42:04.323Z,10.25
2022-11-06T16:44:24.897Z,9.50
2022-11-06T16:47:14.460Z,9.20
2022-11-06T16:49:33.131Z,9.60
2022-11-06T16:53:52.433Z,12.75
2022-11-06T16:55:57.022Z,10.60
2022-11-06T16:58:02.683Z,12.20
2022-11-06T17:00:08.667Z,10.25
2022-11-06T17:02:22.412Z,10.35
2022-11-06T17:04:29.730Z,9.20
2022-11-06T17:06:34.921Z,10.52
2022-11-06T17:08:39.537Z,10.45
2022-11-06T17:10:43.987Z,10.95
2022-11-06T17:12:46.623Z,9.57
2022-11-06T17:14:49.433Z,11.60
2022-11-06T17:16:57.878Z,10.80
2022-11-06T17:19:02.020Z,10.77
2022-11-06T17:21:06.769Z,9.10
2022-11-06T17:23:15.051Z,10.05
2022-11-06T17:25:18.925Z,10.98
2022-11-06T17:27:21.611Z,11.18
2022-11-06T17:29:24.263Z,13.07
2022-11-06T17:31:27.871Z,11.52
2022-11-06T17:33:30.570Z,13.25
2022-11-06T17:35:34.812Z,13.15
2022-11-06T17:37:38.463Z,12.93
2022-11-06T17:39:41.102Z,11.50
2022-11-06T17:41:43.731Z,10.50
2022-11-06T17:43:46.481Z,10.57
2022-11-06T17:45:49.960Z,10.45
2022-11-06T17:47:53.034Z,12.43
2022-11-06T17:49:55.662Z,10.93
2022-11-06T17:52:00.294Z,9.98
2022-11-06T17:54:03.618Z,9.63
2022-11-06T17:56:08.215Z,10.25
2022-11-06T17:58:11.057Z,10.43
2022-11-06T18:00:16.316Z,10.40
2022-11-06T18:02:40.792Z,10.02
2022-11-06T18:04:42.254Z,8.82
2022-11-06T18:06:45.856Z,8.88
2022-11-06T18:08:49.806Z,9.25
2022-11-06T18:10:55.922Z,9.63
2022-11-06T18:12:58.680Z,9.38
2022-11-06T18:15:01.354Z,8.02
2022-11-06T18:17:04.043Z,8.70
2022-11-06T18:19:07.733Z,6.57
2022-11-06T18:21:10.361Z,6.63
2022-11-06T18:23:13.234Z,7.57
2022-11-06T18:25:17.427Z,8.20
2022-11-06T18:27:20.208Z,8.73
2022-11-06T18:29:23.054Z,8.82
2022-11-06T18:31:25.713Z,7.70
2022-11-06T18:33:29.957Z,9.70
2022-11-06T18:35:32.613Z,10.43
2022-11-06T18:37:35.267Z,8.07
2022-11-06T18:39:39.514Z,6.65
2022-11-06T18:41:43.592Z,8.32
2022-11-06T18:43:46.758Z,7.85
2022-11-06T18:45:49.578Z,7.57
2022-11-06T18:47:52.272Z,6.32
2022-11-06T18:49:54.851Z,9.07
2022-11-06T18:51:57.437Z,6.38
2022-11-06T18:54:01.667Z,6.55
2022-11-06T18:56:04.913Z,7.10
2022-11-06T18:58:08.983Z,7.35
2022-11-06T19:00:13.518Z,6.70
2022-11-06T19:02:18.234Z,14.90
2022-11-06T19:04:21.809Z,8.80
2022-11-06T19:06:24.524Z,8.35
2022-11-06T19:08:27.203Z,6.78
2022-11-06T19:10:31.223Z,7.57
2022-11-06T19:12:33.924Z,7.60
2022-11-06T19:14:37.875Z,6.68
2022-11-06T19:16:40.495Z,6.78
2022-11-06T19:18:43.182Z,5.95
2022-11-06T19:20:45.768Z,6.38
2022-11-06T19:22:50.763Z,5.78
2022-11-06T19:24:53.443Z,7.68
2022-11-06T19:26:56.208Z,6.60
2022-11-06T19:29:00.025Z,7.40
2022-11-06T19:31:04.353Z,6.82
2022-11-06T19:33:06.998Z,5.40
2022-11-06T19:35:10.503Z,6.45
2022-11-06T19:37:13.136Z,5.45
2022-11-06T19:39:15.778Z,5.75
2022-11-06T19:41:18.378Z,6.47
2022-11-06T19:43:20.985Z,5.38
2022-11-06T19:45:24.985Z,5.03
2022-11-06T19:47:29.241Z,7.07
2022-11-06T19:49:31.972Z,7.15
2022-11-06T19:51:37.390Z,5.38
2022-11-06T19:53:40.237Z,4.95
2022-11-06T19:55:42.881Z,6.07
2022-11-06T19:57:45.512Z,4.80
2022-11-06T19:59:48.172Z,4.97
2022-11-06T20:01:51.017Z,5.78
2022-11-06T20:03:55.064Z,4.85
2022-11-06T20:05:57.691Z,4.80
2022-11-06T20:08:00.314Z,4.72
2022-11-06T20:10:03.638Z,4.13
2022-11-06T20:12:07.326Z,3.97
2022-11-06T20:14:09.961Z,4.38
2022-11-06T20:16:14.331Z,5.10
2022-11-06T20:18:16.926Z,5.00
2022-11-06T20:20:21.450Z,4.82
2022-11-06T20:22:25.024Z,4.50
2022-11-06T20:24:27.632Z,4.93
2022-11-06T20:26:30.287Z,4.78
2022-11-06T20:28:33.170Z,3.83
2022-11-06T20:30:35.884Z,4.80
2022-11-06T20:32:38.513Z,4.90
2022-11-06T20:34:43.706Z,6.28
2022-11-06T20:36:47.779Z,5.47
2022-11-06T20:38:50.858Z,4.63
2022-11-06T20:40:55.782Z,4.18
2022-11-06T20:42:58.811Z,6.25
2022-11-06T20:45:01.642Z,3.88
2022-11-06T20:47:04.312Z,3.83
2022-11-06T20:49:06.985Z,5.15
2022-11-06T20:51:15.494Z,4.28
2022-11-06T20:53:20.056Z,4.72
2022-11-06T20:55:22.727Z,4.80
2022-11-06T20:57:25.373Z,4.05
2022-11-06T20:59:28.204Z,4.22
2022-11-06T21:01:31.285Z,4.35
2022-11-06T21:03:34.566Z,4.00
2022-11-06T21:05:39.243Z,4.82
2022-11-06T21:07:42.756Z,5.30
2022-11-06T21:09:46.922Z,4.75
2022-11-06T21:11:50.116Z,4.05
2022-11-06T21:13:54.806Z,5.03
2022-11-06T21:16:01.920Z,5.45
2022-11-06T21:18:04.975Z,10.10
2022-11-06T21:20:08.659Z,7.22
2022-11-06T21:22:11.901Z,7.07
2022-11-06T21:24:14.835Z,9.15
2022-11-06T21:26:20.415Z,7.15
2022-11-06T21:28:23.044Z,5.20
2022-11-06T21:30:26.221Z,4.45
2022-11-06T21:32:29.158Z,9.65
2022-11-06T21:34:31.816Z,12.32
2022-11-06T21:36:36.428Z,6.40
2022-11-06T21:38:39.527Z,15.18
2022-11-06T21:40:42.253Z,7.68
2022-11-06T21:42:46.243Z,5.45
2022-11-06T21:44:49.034Z,7.28
2022-11-06T21:46:51.726Z,5.53
2022-11-06T21:48:54.965Z,13.55
2022-11-06T21:50:57.979Z,17.23
2022-11-06T21:53:18.165Z,4.32
2022-11-06T21:55:38.424Z,14.70
2022-11-06T21:57:41.062Z,3.35
2022-11-06T21:59:45.089Z,13.75
2022-11-06T22:01:48.035Z,11.88
2022-11-06T22:03:51.541Z,6.95
2022-11-06T22:05:54.193Z,5.05
2022-11-06T22:07:56.871Z,7.43
2022-11-06T22:09:59.492Z,4.65
2022-11-06T22:12:02.115Z,6.50
2022-11-06T22:14:07.825Z,4.55
2022-11-06T22:16:12.978Z,5.18
2022-11-06T22:18:15.946Z,3.20
2022-11-06T22:20:19.096Z,4.00
2022-11-06T22:22:21.769Z,3.72
2022-11-06T22:24:24.518Z,4.45
2022-11-06T22:26:30.083Z,3.10
2022-11-06T22:28:33.025Z,3.75
2022-11-06T22:30:35.772Z,3.90
2022-11-06T22:32:39.781Z,4.50
2022-11-06T22:34:42.398Z,3.47
2022-11-06T22:36:45.180Z,6.20
2022-11-06T22:38:48.665Z,4.63
2022-11-06T22:40:55.130Z,6.32
2022-11-06T22:42:57.755Z,4.50
2022-11-06T22:45:00.431Z,5.57
2022-11-06T22:47:03.412Z,12.65
2022-11-06T22:49:07.464Z,4.43
2022-11-06T22:51:12.493Z,6.90
2022-11-06T22:53:15.452Z,5.63
2022-11-06T22:55:18.323Z,9.65
2022-11-06T22:57:20.938Z,8.05
2022-11-06T22:59:23.911Z,5.70
2022-11-06T23:01:28.896Z,7.45
2022-11-06T23:03:32.329Z,4.13
2022-11-06T23:05:39.754Z,5.45
2022-11-06T23:07:42.400Z,7.70
2022-11-06T23:09:45.060Z,3.33
2022-11-06T23:11:48.830Z,5.57
2022-11-06T23:13:51.804Z,3.75
2022-11-06T23:16:02.482Z,4.43
2022-11-06T23:18:05.762Z,8.25
2022-11-06T23:20:09.329Z,6.93
2022-11-06T23:22:30.679Z,3.03
2022-11-06T23:24:33.448Z,3.45
2022-11-06T23:26:36.084Z,3.22
2022-11-06T23:28:38.694Z,5.07
2022-11-06T23:30:41.367Z,3.58
2022-11-06T23:32:44.230Z,3.40
2022-11-06T23:34:46.829Z,7.05
2022-11-06T23:36:49.564Z,3.70
2022-11-06T23:38:55.066Z,4.28
2022-11-06T23:40:57.656Z,10.68
2022-11-06T23:43:00.334Z,2.90
2022-11-06T23:45:20.419Z,2.90
2022-11-06T23:47:23.053Z,3.30
2022-11-06T23:49:25.962Z,2.65
2022-11-06T23:51:28.981Z,3.65
2022-11-06T23:53:31.570Z,3.40
2022-11-06T23:55:35.750Z,3.35
2022-11-06T23:57:38.665Z,3.63
2022-11-06T23:59:41.258Z,4.63
